Time;durP1;ratioP1;P1;durP2;ratioP2;P2;SDS_P1;SDS_P2;PMS_P1;PMS_P2;Temp;Humidity;BMP_temperature;BMP_pressure;BME280_temperature;BME280_humidity;BME280_pressure;Samples;Min_cycle;Max_cycle;Signal;HPM_P1;HPM_P2
2023/03/10 00:01:35;;;;;;;0.00;0.00;;;;;;;9.13;100.00;96893.66;6242089;22;20322;-77
2023/03/10 00:04:01;;;;;;;0.00;0.00;;;;;;;9.13;100.00;96890.94;6240320;22;20031;-77
2023/03/10 00:06:31;;;;;;;0.00;0.00;;;;;;;9.15;100.00;96891.38;6217819;22;20003;-78
2023/03/10 00:08:58;;;;;;;0.00;0.00;;;;;;;9.10;100.00;96880.72;6244964;22;20022;-78
2023/03/10 00:11:26;;;;;;;0.00;0.00;;;;;;;9.09;100.00;96862.75;6242165;22;20008;-79
2023/03/10 00:13:59;;;;;;;0.00;0.00;;;;;;;9.08;100.00;96856.53;6220258;22;20484;-77
2023/03/10 00:16:29;;;;;;;0.00;0.00;;;;;;;9.16;100.00;96862.19;6240885;22;20004;-78
2023/03/10 00:18:55;;;;;;;0.00;0.00;;;;;;;9.16;100.00;96871.16;6246318;22;20080;-76
2023/03/10 00:21:26;;;;;;;0.00;0.00;;;;;;;9.17;100.00;96875.50;6236110;22;20011;-76
2023/03/10 00:23:52;;;;;;;0.00;0.00;;;;;;;9.13;100.00;96866.41;6272975;22;20007;-77
2023/03/10 00:26:19;;;;;;;0.00;0.00;;;;;;;9.16;100.00;96867.66;6237389;22;20488;-76
2023/03/10 00:28:48;;;;;;;0.00;0.00;;;;;;;9.16;100.00;96871.16;6236282;22;20082;-78
2023/03/10 00:31:16;;;;;;;0.00;0.00;;;;;;;9.27;100.00;96885.09;6235609;23;20330;-76
2023/03/10 00:33:41;;;;;;;0.00;0.00;;;;;;;9.30;100.00;96889.09;6242481;22;20003;-74
2023/03/10 00:36:19;;;;;;;0.00;0.00;;;;;;;9.28;100.00;96897.59;6266455;22;20008;-77
2023/03/10 00:38:46;;;;;;;0.00;0.00;;;;;;;9.29;100.00;96909.28;6238307;23;20004;-77
2023/03/10 00:41:14;;;;;;;0.00;0.00;;;;;;;9.20;100.00;96902.06;6239855;23;20004;-78
2023/03/10 00:43:40;;;;;;;0.00;0.00;;;;;;;9.22;100.00;96910.69;6240176;22;20035;-76
2023/03/10 00:46:06;;;;;;;0.00;0.00;;;;;;;9.17;100.00;96913.66;6237906;23;20000;-77
2023/03/10 00:48:32;;;;;;;0.00;0.00;;;;;;;9.24;100.00;96924.78;6261370;22;20004;-78
2023/03/10 00:51:10;;;;;;;0.00;0.00;;;;;;;9.23;100.00;96930.56;6242622;22;20008;-76
2023/03/10 00:53:37;;;;;;;0.00;0.00;;;;;;;9.12;100.00;96904.91;6239203;23;20091;-75
2023/03/10 00:56:09;;;;;;;0.10;0.10;;;;;;;9.24;100.00;96924.78;6213689;23;20012;-75
2023/03/10 00:58:44;;;;;;;0.00;0.00;;;;;;;9.14;100.00;96910.78;6241853;22;20004;-75
2023/03/10 01:01:15;;;;;;;0.00;0.00;;;;;;;9.06;100.00;96904.34;6239067;23;20453;-75
2023/03/10 01:03:41;;;;;;;0.00;0.00;;;;;;;9.22;100.00;96937.94;6240058;22;20007;-75
2023/03/10 01:06:09;;;;;;;0.00;0.00;;;;;;;9.04;100.00;96915.59;6236792;23;20000;-76
2023/03/10 01:08:34;;;;;;;0.00;0.00;;;;;;;9.03;100.00;96913.19;6241069;23;20004;-75
2023/03/10 01:11:00;;;;;;;0.00;0.00;;;;;;;9.06;100.00;96929.66;6239198;23;20016;-75
2023/03/10 01:13:25;;;;;;;0.00;0.00;;;;;;;9.08;100.00;96945.66;6244140;23;20083;-76
2023/03/10 01:15:51;;;;;;;0.00;0.00;;;;;;;9.03;100.00;96954.09;6212249;23;20030;-76
2023/03/10 01:18:20;;;;;;;0.10;0.10;;;;;;;9.06;100.00;96967.03;6215410;23;20016;-76
2023/03/10 01:20:46;;;;;;;0.00;0.00;;;;;;;8.91;100.00;96952.94;6241941;23;20016;-75
2023/03/10 01:23:17;;;;;;;0.00;0.00;;;;;;;8.95;100.00;96960.44;6240652;23;20366;-76
2023/03/10 01:25:43;;;;;;;0.00;0.00;;;;;;;8.95;100.00;96976.78;6242234;23;20008;-76
2023/03/10 01:28:09;;;;;;;0.00;0.00;;;;;;;8.90;100.00;96981.31;6242767;22;20497;-75
2023/03/10 01:30:34;;;;;;;0.00;0.00;;;;;;;8.88;100.00;96978.13;6274451;22;20002;-76
2023/03/10 01:33:02;;;;;;;0.00;0.00;;;;;;;8.82;100.00;96971.31;6218665;22;20058;-76
2023/03/10 01:35:33;;;;;;;0.00;0.00;;;;;;;8.67;100.00;96950.19;6221209;22;20086;-76
2023/03/10 01:37:59;;;;;;;0.00;0.00;;;;;;;8.66;100.00;96949.41;6265566;22;20011;-75
2023/03/10 01:40:25;;;;;;;0.00;0.00;;;;;;;8.72;100.00;96945.31;6243838;22;20094;-78
2023/03/10 01:42:51;;;;;;;0.00;0.00;;;;;;;8.82;100.00;96968.59;6245445;22;20007;-76
2023/03/10 01:45:19;;;;;;;0.00;0.00;;;;;;;8.77;100.00;96976.97;6241454;22;20009;-76
2023/03/10 01:47:57;;;;;;;;;;;;;;;;;;;;;
2023/03/10 01:50:30;;;;;;;0.00;0.00;;;;;;;8.70;100.00;96966.66;6264720;22;20086;-75
2023/03/10 01:52:57;;;;;;;0.00;0.00;;;;;;;8.72;100.00;96963.59;6224361;22;20083;-76
2023/03/10 01:55:46;;;;;;;0.00;0.00;;;;;;;8.65;100.00;96969.59;6215226;22;20008;-76
2023/03/10 01:58:14;;;;;;;0.00;0.00;;;;;;;8.73;100.00;96981.50;6273247;22;20083;-76
2023/03/10 02:00:40;;;;;;;0.00;0.00;;;;;;;8.58;100.00;96958.44;6240075;22;20094;-76
2023/03/10 02:03:27;;;;;;;0.00;0.00;;;;;;;8.60;100.00;96966.28;6270474;22;20011;-76
2023/03/10 02:06:00;;;;;;;0.00;0.00;;;;;;;8.55;100.00;96970.81;6265949;22;20056;-75
2023/03/10 02:08:30;;;;;;;0.00;0.00;;;;;;;8.71;100.00;96989.25;6272054;22;20256;-76
2023/03/10 02:10:56;;;;;;;0.00;0.00;;;;;;;8.62;100.00;96981.16;6265266;22;20004;-76
2023/03/10 02:13:22;;;;;;;0.00;0.00;;;;;;;8.63;100.00;96993.66;6272645;22;20007;-76
2023/03/10 02:15:48;;;;;;;0.00;0.00;;;;;;;8.73;100.00;97003.31;6269937;22;20003;-76
2023/03/10 02:18:14;;;;;;;0.00;0.00;;;;;;;8.66;100.00;97009.31;6244132;22;19999;-76
2023/03/10 02:21:41;;;;;;;;;;;;;;;;;;;;;
2023/03/10 02:24:22;;;;;;;0.00;0.00;;;;;;;8.10;100.00;97039.56;6271366;22;20094;-76
2023/03/10 02:26:55;;;;;;;0.00;0.00;;;;;;;7.69;100.00;97019.41;6266761;22;20000;-75
2023/03/10 02:29:44;;;;;;;0.00;0.00;;;;;;;7.48;100.00;97036.47;6272730;22;20003;-75
2023/03/10 02:32:11;;;;;;;0.00;0.00;;;;;;;7.21;100.00;97045.88;6270842;22;20077;-75
2023/03/10 02:34:36;;;;;;;0.00;0.00;;;;;;;6.92;100.00;97054.78;6244324;22;20020;-76
2023/03/10 02:37:02;;;;;;;0.00;0.00;;;;;;;6.66;100.00;97074.66;6270650;22;20317;-75
2023/03/10 02:39:27;;;;;;;0.00;0.00;;;;;;;6.40;100.00;97083.63;6248996;22;20069;-76
2023/03/10 02:41:53;;;;;;;0.00;0.00;;;;;;;6.21;100.00;97073.09;6240963;22;20003;-76
2023/03/10 02:44:20;;;;;;;0.00;0.00;;;;;;;6.04;100.00;97065.75;6272526;22;20008;-76
2023/03/10 02:46:46;;;;;;;0.00;0.00;;;;;;;5.85;100.00;97044.31;6275168;22;20004;-75
2023/03/10 02:49:11;;;;;;;0.00;0.00;;;;;;;5.74;100.00;97037.63;6266730;22;20122;-74
2023/03/10 02:51:41;;;;;;;0.00;0.00;;;;;;;5.68;100.00;97047.00;6267042;22;20012;-75
2023/03/10 02:54:07;;;;;;;0.00;0.00;;;;;;;5.66;100.00;97069.00;6270995;22;20054;-75
2023/03/10 02:56:34;;;;;;;0.00;0.00;;;;;;;5.58;100.00;97070.59;6262151;22;20379;-75
2023/03/10 02:59:00;;;;;;;0.00;0.00;;;;;;;5.51;100.00;97099.28;6271287;22;20012;-76
2023/03/10 03:01:26;;;;;;;0.00;0.00;;;;;;;5.45;100.00;97103.22;6266153;22;20015;-76
2023/03/10 03:03:52;;;;;;;0.00;0.00;;;;;;;5.39;100.00;97130.47;6269624;22;20414;-75
2023/03/10 03:06:18;;;;;;;0.00;0.00;;;;;;;5.30;100.00;97140.50;6268389;22;20429;-75
2023/03/10 03:08:44;;;;;;;0.00;0.00;;;;;;;5.28;100.00;97142.69;6270411;22;20008;-75
2023/03/10 03:11:10;;;;;;;0.00;0.00;;;;;;;5.19;100.00;97139.16;6269945;22;20114;-76
2023/03/10 03:13:35;;;;;;;0.00;0.00;;;;;;;5.12;100.00;97136.09;6266946;22;20046;-75
2023/03/10 03:16:01;;;;;;;0.08;0.08;;;;;;;5.12;100.00;97150.41;6240710;22;20681;-76
2023/03/10 03:18:26;;;;;;;0.00;0.00;;;;;;;5.01;100.00;97149.88;6262475;22;20123;-75
2023/03/10 03:20:52;;;;;;;0.00;0.00;;;;;;;4.99;100.00;97162.91;6271108;22;20007;-76
2023/03/10 03:23:18;;;;;;;0.10;0.10;;;;;;;4.90;100.00;97170.19;6242804;22;20380;-76
2023/03/10 03:25:44;;;;;;;0.00;0.00;;;;;;;4.87;100.00;97171.59;6270327;22;20023;-75
2023/03/10 03:28:20;;;;;;;0.00;0.00;;;;;;;4.69;100.00;97170.69;6296224;22;20337;-77
2023/03/10 03:30:45;;;;;;;0.00;0.00;;;;;;;4.68;100.00;97176.41;6271526;22;20129;-75
2023/03/10 03:33:11;;;;;;;0.10;0.10;;;;;;;4.67;100.00;97194.56;6271551;22;20024;-75
2023/03/10 03:35:36;;;;;;;0.00;0.00;;;;;;;4.65;100.00;97199.47;6241060;22;20011;-76
2023/03/10 03:38:02;;;;;;;0.00;0.00;;;;;;;4.61;100.00;97220.13;6296988;22;20012;-75
2023/03/10 03:40:30;;;;;;;0.10;0.10;;;;;;;4.57;100.00;97216.47;6293827;22;20895;-76
2023/03/10 03:42:55;;;;;;;0.00;0.00;;;;;;;4.53;100.00;97254.13;6272936;22;20075;-76
2023/03/10 03:45:24;;;;;;;0.00;0.00;;;;;;;4.42;100.00;97251.97;6267224;22;20031;-76
2023/03/10 03:47:50;;;;;;;0.05;0.05;;;;;;;4.39;100.00;97269.59;6265633;22;20061;-75
2023/03/10 03:50:17;;;;;;;0.00;0.00;;;;;;;4.35;100.00;97274.81;6276865;22;20015;-75
2023/03/10 03:52:43;;;;;;;0.00;0.00;;;;;;;4.27;100.00;97291.75;6265620;22;20065;-75
2023/03/10 03:55:11;;;;;;;0.03;0.03;;;;;;;4.18;100.00;97297.06;6269348;22;20004;-75
2023/03/10 03:57:37;;;;;;;0.00;0.00;;;;;;;4.10;100.00;97311.28;6268224;22;20460;-75
2023/03/10 04:00:06;;;;;;;0.08;0.08;;;;;;;3.99;100.00;97296.38;6267006;22;20079;-74
2023/03/10 04:02:33;;;;;;;0.00;0.00;;;;;;;4.00;100.00;97306.88;6265441;22;20003;-76
2023/03/10 04:04:58;;;;;;;0.00;0.00;;;;;;;3.99;100.00;97310.66;6267828;22;19996;-76
2023/03/10 04:07:26;;;;;;;0.00;0.00;;;;;;;3.98;100.00;97325.28;6271437;22;20011;-75
2023/03/10 04:09:52;;;;;;;0.00;0.00;;;;;;;3.94;100.00;97313.47;6268336;22;20072;-75
2023/03/10 04:12:17;;;;;;;0.00;0.00;;;;;;;3.94;100.00;97351.34;6271447;22;20003;-75
2023/03/10 04:15:06;;;;;;;0.00;0.00;;;;;;;3.91;100.00;97356.53;6264441;22;20004;-76
2023/03/10 04:17:31;;;;;;;0.00;0.00;;;;;;;3.83;100.00;97339.09;6271315;22;20322;-75
2023/03/10 04:19:57;;;;;;;0.00;0.00;;;;;;;3.98;100.00;97368.53;6266510;22;20048;-74
2023/03/10 04:22:22;;;;;;;0.00;0.00;;;;;;;4.03;100.00;97354.16;6271318;22;20011;-74
2023/03/10 04:24:47;;;;;;;0.00;0.00;;;;;;;3.93;100.00;97344.31;6269014;22;20026;-74
2023/03/10 04:27:13;;;;;;;0.00;0.00;;;;;;;4.02;100.00;97353.34;6245544;22;19996;-74
2023/03/10 04:29:38;;;;;;;0.00;0.00;;;;;;;3.97;100.00;97350.75;6271299;22;20425;-75
2023/03/10 04:32:04;;;;;;;0.00;0.00;;;;;;;3.93;100.00;97368.66;6243481;22;19996;-74
2023/03/10 04:34:30;;;;;;;0.00;0.00;;;;;;;3.94;100.00;97372.16;6246498;22;20015;-75
2023/03/10 04:36:56;;;;;;;0.00;0.00;;;;;;;3.87;100.00;97396.06;6268995;22;20004;-76
2023/03/10 04:39:21;;;;;;;0.00;0.00;;;;;;;3.84;100.00;97395.56;6246626;22;20043;-75
2023/03/10 04:41:52;;;;;;;0.00;0.00;;;;;;;3.80;100.00;97391.06;6269593;22;20059;-76
2023/03/10 04:44:20;;;;;;;0.00;0.00;;;;;;;3.76;100.00;97392.72;6270316;22;20007;-76
2023/03/10 04:46:45;;;;;;;0.10;0.10;;;;;;;3.74;100.00;97416.53;6246166;22;20000;-76
2023/03/10 04:49:14;;;;;;;0.00;0.00;;;;;;;3.72;100.00;97402.53;6268107;22;20058;-76
2023/03/10 04:51:39;;;;;;;0.00;0.00;;;;;;;3.73;100.00;97413.03;6272609;22;20130;-75
2023/03/10 04:54:05;;;;;;;0.00;0.00;;;;;;;3.77;100.00;97429.47;6266935;22;20015;-75
2023/03/10 04:56:30;;;;;;;0.00;0.00;;;;;;;3.65;100.00;97444.25;6270714;22;20011;-75
2023/03/10 04:58:56;;;;;;;0.00;0.00;;;;;;;3.71;100.00;97465.78;6274744;22;20402;-77
2023/03/10 05:01:22;;;;;;;0.00;0.00;;;;;;;3.70;100.00;97456.06;6267624;22;20090;-76
2023/03/10 05:03:48;;;;;;;0.00;0.00;;;;;;;3.67;100.00;97482.56;6271752;22;20440;-76
2023/03/10 05:06:20;;;;;;;0.00;0.00;;;;;;;3.50;100.00;97460.66;6267896;22;19995;-76
2023/03/10 05:08:56;;;;;;;0.00;0.00;;;;;;;3.51;100.00;97475.78;6272104;22;20061;-76
2023/03/10 05:11:22;;;;;;;0.00;0.00;;;;;;;3.61;100.00;97504.59;6269729;22;20030;-76
2023/03/10 05:13:53;;;;;;;0.00;0.00;;;;;;;3.51;100.00;97508.22;6273796;22;20513;-77
2023/03/10 05:16:20;;;;;;;0.00;0.00;;;;;;;3.42;100.00;97528.88;6266239;22;20026;-78
2023/03/10 05:18:48;;;;;;;0.00;0.00;;;;;;;3.47;100.00;97561.22;6295721;22;20648;-74
2023/03/10 05:21:31;;;;;;;0.00;0.00;;;;;;;3.37;100.00;97569.44;6255882;22;20004;-75
2023/03/10 05:23:59;;;;;;;0.00;0.00;;;;;;;3.20;100.00;97543.72;6270755;22;20011;-75
2023/03/10 05:26:25;;;;;;;0.00;0.00;;;;;;;3.31;100.00;97564.13;6293765;22;20418;-76
2023/03/10 05:28:53;;;;;;;0.00;0.00;;;;;;;3.39;100.00;97586.16;6271494;22;20027;-75
2023/03/10 05:31:24;;;;;;;0.00;0.00;;;;;;;3.36;100.00;97589.44;6269911;22;20003;-77
2023/03/10 05:33:57;;;;;;;0.00;0.00;;;;;;;3.24;100.00;97574.47;6273122;22;20004;-76
2023/03/10 05:36:33;;;;;;;;;;;;;;;;;;;;;
2023/03/10 05:38:59;;;;;;;0.00;0.00;;;;;;;3.23;100.00;97613.38;6272909;22;20381;-76
2023/03/10 05:41:24;;;;;;;0.00;0.00;;;;;;;3.29;100.00;97614.91;6270614;22;20004;-76
2023/03/10 05:43:50;;;;;;;0.00;0.00;;;;;;;3.36;100.00;97641.59;6294954;22;20014;-76
2023/03/10 05:46:15;;;;;;;0.00;0.00;;;;;;;3.25;100.00;97638.19;6269884;22;20007;-76
2023/03/10 05:48:41;;;;;;;0.00;0.00;;;;;;;3.16;100.00;97637.22;6270679;22;20004;-76
2023/03/10 05:51:14;;;;;;;0.00;0.00;;;;;;;3.21;100.00;97642.53;6268435;22;20011;-76
2023/03/10 05:53:47;;;;;;;0.00;0.00;;;;;;;3.25;100.00;97667.88;6270806;22;20453;-75
2023/03/10 05:56:17;;;;;;;0.00;0.00;;;;;;;3.16;100.00;97669.59;6292284;22;20023;-77
2023/03/10 05:58:43;;;;;;;0.00;0.00;;;;;;;3.35;100.00;97709.41;6271802;22;20008;-76
2023/03/10 06:01:15;;;;;;;0.00;0.00;;;;;;;3.28;100.00;97697.03;6269661;22;19996;-75
2023/03/10 06:03:48;;;;;;;0.00;0.00;;;;;;;3.30;100.00;97711.06;6269465;22;20034;-76
2023/03/10 06:06:36;;;;;;;0.00;0.00;;;;;;;3.28;100.00;97713.22;6266966;22;20038;-75
2023/03/10 06:09:02;;;;;;;0.00;0.00;;;;;;;3.32;100.00;97730.50;6270340;22;20004;-74
2023/03/10 06:11:30;;;;;;;0.10;0.10;;;;;;;3.25;100.00;97727.31;6265913;22;20110;-75
2023/03/10 06:13:59;;;;;;;0.00;0.00;;;;;;;3.23;100.00;97734.09;6270620;22;20069;-76
2023/03/10 06:16:24;;;;;;;0.00;0.00;;;;;;;3.36;100.00;97773.13;6265673;22;20053;-76
2023/03/10 06:18:55;;;;;;;0.00;0.00;;;;;;;3.31;100.00;97772.13;6269724;22;20354;-76
2023/03/10 06:21:21;;;;;;;0.00;0.00;;;;;;;3.10;100.00;97755.25;6267034;22;20845;-76
2023/03/10 06:23:47;;;;;;;0.10;0.10;;;;;;;3.24;100.00;97787.00;6244390;22;20007;-76
2023/03/10 06:26:21;;;;;;;0.00;0.00;;;;;;;3.18;100.00;97790.84;6270009;22;20022;-75
2023/03/10 06:28:47;;;;;;;0.00;0.00;;;;;;;3.19;100.00;97812.16;6269466;22;20069;-75
2023/03/10 06:31:16;;;;;;;0.00;0.00;;;;;;;3.07;100.00;97831.44;6267303;22;20004;-77
2023/03/10 06:33:43;;;;;;;0.00;0.00;;;;;;;2.96;100.00;97836.09;6268707;22;20004;-76
2023/03/10 06:36:12;;;;;;;0.00;0.00;;;;;;;2.90;100.00;97837.19;6271669;22;20003;-76
2023/03/10 06:38:38;;;;;;;0.00;0.00;;;;;;;2.79;100.00;97847.25;6269523;22;20007;-76
2023/03/10 06:41:05;;;;;;;0.00;0.00;;;;;;;2.78;100.00;97850.22;6269808;22;20008;-78
2023/03/10 06:43:32;;;;;;;0.00;0.00;;;;;;;2.68;100.00;97861.88;6268135;22;19996;-77
2023/03/10 06:46:21;;;;;;;0.00;0.00;;;;;;;2.65;100.00;97899.41;6269565;22;20000;-78
2023/03/10 06:48:51;;;;;;;0.00;0.00;;;;;;;2.30;100.00;97871.47;6268968;22;20004;-77
2023/03/10 06:51:31;;;;;;;0.00;0.00;;;;;;;2.27;100.00;97879.00;6270539;22;20008;-77
2023/03/10 06:53:59;;;;;;;0.00;0.00;;;;;;;2.20;100.00;97900.06;6244622;22;20364;-75
2023/03/10 06:56:25;;;;;;;0.00;0.00;;;;;;;2.19;100.00;97914.66;6295842;22;20011;-77
2023/03/10 06:58:50;;;;;;;0.00;0.00;;;;;;;2.24;100.00;97946.97;6273636;22;20003;-78
2023/03/10 07:01:27;;;;;;;0.00;0.00;;;;;;;2.16;100.00;97958.34;6269221;22;20011;-76
2023/03/10 07:03:59;;;;;;;0.00;0.00;;;;;;;2.17;100.00;97975.31;6272152;22;20030;-74
2023/03/10 07:06:25;;;;;;;0.00;0.00;;;;;;;2.11;100.00;97971.81;6244150;22;20057;-76
2023/03/10 07:08:51;;;;;;;0.00;0.00;;;;;;;2.14;100.00;97971.25;6271064;22;20008;-74
2023/03/10 07:11:20;;;;;;;0.00;0.00;;;;;;;2.17;100.00;97972.63;6291861;22;20404;-75
2023/03/10 07:13:46;;;;;;;0.00;0.00;;;;;;;2.21;100.00;97971.81;6269967;22;20019;-76
2023/03/10 07:16:14;;;;;;;0.00;0.00;;;;;;;2.28;100.00;97971.53;6265255;22;20004;-75
2023/03/10 07:19:04;;;;;;;0.00;0.00;;;;;;;2.31;100.00;97986.34;6268775;22;20032;-75
2023/03/10 07:21:31;;;;;;;0.10;0.10;;;;;;;2.25;100.00;97983.66;6256532;22;20008;-75
2023/03/10 07:23:57;;;;;;;0.00;0.00;;;;;;;2.36;100.00;97999.84;6268318;22;20008;-75
2023/03/10 07:26:23;;;;;;;0.00;0.00;;;;;;;2.42;100.00;98020.31;6264823;22;20000;-76
2023/03/10 07:28:53;;;;;;;0.10;0.10;;;;;;;2.34;100.00;98019.00;6294045;22;20303;-77
2023/03/10 07:31:19;;;;;;;0.00;0.00;;;;;;;2.45;100.00;98035.97;6268539;22;20126;-80
2023/03/10 07:33:45;;;;;;;0.00;0.00;;;;;;;2.61;100.00;98072.66;6264924;22;20402;-76
2023/03/10 07:36:26;;;;;;;;;;;;;;;;;;;;;
2023/03/10 07:38:57;;;;;;;0.00;0.00;;;;;;;2.72;100.00;98051.06;6268877;22;20355;-77
2023/03/10 07:41:25;;;;;;;0.00;0.00;;;;;;;2.71;100.00;98060.22;6270131;22;20018;-76
2023/03/10 07:43:54;;;;;;;0.00;0.00;;;;;;;2.83;100.00;98095.81;6270043;22;20088;-76
2023/03/10 07:46:20;;;;;;;0.00;0.00;;;;;;;2.77;100.00;98113.13;6272410;22;19991;-76
2023/03/10 07:48:48;;;;;;;0.00;0.00;;;;;;;2.71;100.00;98125.00;6271308;22;20090;-76
2023/03/10 07:51:14;;;;;;;0.00;0.00;;;;;;;2.75;100.00;98177.38;6246474;22;20064;-75
2023/03/10 07:53:39;;;;;;;0.00;0.00;;;;;;;2.69;100.00;98178.44;6272559;22;20387;-79
2023/03/10 07:56:09;;;;;;;0.00;0.00;;;;;;;2.56;100.00;98221.06;6268755;22;20014;-76
2023/03/10 07:58:40;;;;;;;0.00;0.00;;;;;;;2.67;100.00;98207.56;6269147;22;20018;-79
2023/03/10 08:01:15;;;;;;;0.00;0.00;;;;;;;2.89;100.00;98218.94;6270432;22;20032;-79
2023/03/10 08:03:43;;;;;;;0.00;0.00;;;;;;;3.00;100.00;98257.53;6270578;22;20011;-76
2023/03/10 08:06:25;;;;;;;0.00;0.00;;;;;;;2.82;100.00;98272.38;6269483;22;20026;-80
2023/03/10 08:09:29;;;;;;;0.00;0.00;;;;;;;2.65;100.00;98313.09;6298394;22;20003;-81
2023/03/10 08:11:58;;;;;;;0.10;0.10;;;;;;;2.47;100.00;98322.50;6272163;22;20039;-82
2023/03/10 08:14:39;;;;;;;0.00;0.00;;;;;;;2.51;100.00;98338.94;6270140;22;20043;-79
2023/03/10 08:17:07;;;;;;;0.00;0.00;;;;;;;2.37;100.00;98334.03;6248694;22;20019;-81
2023/03/10 08:19:35;;;;;;;0.00;0.00;;;;;;;2.43;100.00;98367.25;6269154;22;20114;-81
2023/03/10 08:22:01;;;;;;;0.00;0.00;;;;;;;2.48;100.00;98388.03;6270520;22;20019;-82
2023/03/10 08:24:54;;;;;;;;;;;;;;;;;;;;;
2023/03/10 08:27:22;;;;;;;0.00;0.00;;;;;;;2.47;100.00;98398.03;6273862;22;20413;-81
2023/03/10 08:30:00;;;;;;;0.10;0.10;;;;;;;2.44;100.00;98406.66;6242806;22;20003;-81
2023/03/10 08:32:27;;;;;;;0.00;0.00;;;;;;;2.50;100.00;98421.78;6270048;22;19999;-79
2023/03/10 08:34:53;;;;;;;0.00;0.00;;;;;;;2.42;100.00;98452.78;6267865;22;20014;-77
2023/03/10 08:55:35;;;;;;;0.00;0.00;;;;;;;2.39;100.00;98538.81;5964940;23;20093;-76
2023/03/10 08:58:03;;;;;;;0.00;0.00;;;;;;;2.51;100.00;98552.94;6060975;23;20010;-77
2023/03/10 09:00:30;;;;;;;0.00;0.00;;;;;;;2.56;100.00;98569.16;6152201;23;20020;-78
2023/03/10 09:03:04;;;;;;;0.00;0.00;;;;;;;2.74;100.00;98610.31;6125146;23;20388;-77
2023/03/10 09:05:30;;;;;;;0.00;0.00;;;;;;;2.80;100.00;98622.75;6126871;23;20009;-77
2023/03/10 09:07:56;;;;;;;0.00;0.00;;;;;;;2.86;100.00;98629.84;6144627;22;20012;-77
2023/03/10 09:10:21;;;;;;;0.00;0.00;;;;;;;2.96;100.00;98646.09;6270338;22;20003;-77
2023/03/10 09:12:47;;;;;;;0.00;0.00;;;;;;;3.04;100.00;98625.06;6295606;22;20431;-77
2023/03/10 09:15:19;;;;;;;0.00;0.00;;;;;;;3.30;100.00;98647.63;6268953;22;20007;-76
2023/03/10 09:17:45;;;;;;;0.00;0.00;;;;;;;3.39;100.00;98661.47;6243246;22;20011;-77
2023/03/10 09:20:11;;;;;;;0.00;0.00;;;;;;;3.39;100.00;98702.84;6242726;22;20011;-77
2023/03/10 09:22:37;;;;;;;0.00;0.00;;;;;;;3.35;99.64;98717.13;6244647;22;20342;-77
2023/03/10 09:25:02;;;;;;;0.10;0.10;;;;;;;3.41;100.00;98737.69;6266004;22;20031;-76
2023/03/10 09:27:28;;;;;;;0.00;0.00;;;;;;;3.38;98.76;98728.22;6269948;22;20335;-77
2023/03/10 09:29:56;;;;;;;0.10;0.10;;;;;;;3.52;98.35;98742.09;6243264;22;20143;-78
2023/03/10 09:32:29;;;;;;;0.00;0.00;;;;;;;3.78;96.28;98731.41;6271275;22;20011;-78
2023/03/10 09:35:00;;;;;;;0.00;0.00;;;;;;;4.27;93.30;98754.63;6269178;22;20007;-78
2023/03/10 09:37:25;;;;;;;0.03;0.03;;;;;;;4.61;91.53;98733.31;6269526;22;20012;-78
2023/03/10 09:39:56;;;;;;;0.00;0.00;;;;;;;5.22;89.79;98781.31;6267872;22;20004;-78
2023/03/10 09:43:17;;;;;;;0.00;0.00;;;;;;;5.75;86.42;98812.75;6244028;22;20039;-77
2023/03/10 09:46:04;;;;;;;0.00;0.00;;;;;;;6.03;83.74;98833.09;6203188;23;20135;-77
2023/03/10 09:48:55;;;;;;;0.00;0.00;;;;;;;7.28;84.31;98845.00;6157927;23;20064;-78
2023/03/10 09:51:22;;;;;;;0.00;0.00;;;;;;;10.72;71.11;98830.44;6181162;23;20013;-78
2023/03/10 09:54:12;;;;;;;;;;;;;;;;;;;;;
2023/03/10 09:56:40;;;;;;;0.00;0.00;;;;;;;11.74;57.34;98867.53;6234410;22;20082;-77
2023/03/10 09:59:37;;;;;;;0.00;0.00;;;;;;;10.77;59.50;98894.03;6241439;22;20308;-77
2023/03/10 10:02:22;;;;;;;0.00;0.00;;;;;;;10.30;60.15;98902.28;6268833;22;20318;-82
2023/03/10 10:04:52;;;;;;;;;;;;;;;10.62;59.87;98913.47;6293004;22;20010;-78
2023/03/10 10:07:21;;;;;;;0.00;0.00;;;;;;;11.43;56.19;98892.91;6270797;22;19931;-78
2023/03/10 10:09:51;;;;;;;0.00;0.00;;;;;;;10.96;55.34;98902.09;6266017;22;20334;-79
2023/03/10 10:12:28;;;;;;;0.00;0.00;;;;;;;10.19;57.07;98928.19;6270227;22;19995;-78
2023/03/10 10:15:16;;;;;;;0.00;0.00;;;;;;;9.78;57.79;98934.28;6267695;22;20010;-76
2023/03/10 10:18:22;;;;;;;0.00;0.00;;;;;;;9.36;59.80;98944.19;6267897;22;20197;-79
2023/03/10 10:20:52;;;;;;;0.00;0.00;;;;;;;9.33;60.18;98940.16;6267865;22;20426;-80
2023/03/10 10:23:27;;;;;;;0.00;0.00;;;;;;;9.59;59.12;98932.41;6266509;22;20613;-81
2023/03/10 10:25:53;;;;;;;0.00;0.00;;;;;;;9.99;59.00;98934.78;6273323;22;20102;-79
2023/03/10 10:28:38;;;;;;;0.00;0.00;;;;;;;10.37;57.31;98961.25;6240285;22;20434;-79
2023/03/10 10:31:20;;;;;;;0.10;0.10;;;;;;;10.85;55.46;98957.31;6294655;22;20338;-80
2023/03/10 10:33:59;;;;;;;0.00;0.00;;;;;;;11.19;54.47;98965.13;6267508;22;20066;-81
2023/03/10 10:36:30;;;;;;;0.00;0.00;;;;;;;11.12;54.83;99019.44;6269354;22;20004;-83
2023/03/10 10:38:58;;;;;;;0.00;0.00;;;;;;;10.66;52.93;99010.19;6268235;22;20045;-78
2023/03/10 10:41:33;;;;;;;0.00;0.00;;;;;;;10.03;55.17;98995.91;6269043;22;20376;-77
2023/03/10 10:44:08;;;;;;;0.08;0.08;;;;;;;9.42;56.22;98998.41;6266221;22;20010;-78
2023/03/10 10:46:34;;;;;;;0.00;0.00;;;;;;;9.42;57.57;99035.78;6267042;22;20056;-80
2023/03/10 10:49:26;;;;;;;0.00;0.00;;;;;;;9.33;56.37;99037.53;6265877;22;20012;-79
2023/03/10 10:52:19;;;;;;;0.00;0.00;;;;;;;8.46;57.57;99042.78;6260845;22;20004;-79
2023/03/10 10:54:58;;;;;;;0.00;0.00;;;;;;;7.79;59.21;99023.38;6263414;22;20010;-79
2023/03/10 10:57:52;;;;;;;0.00;0.00;;;;;;;7.74;61.28;99026.97;6267897;22;20010;-78
2023/03/10 11:00:24;;;;;;;0.00;0.00;;;;;;;8.01;61.90;99045.53;6269153;22;20418;-79
2023/03/10 11:02:54;;;;;;;0.00;0.00;;;;;;;8.35;61.85;99046.66;6269805;22;20061;-77
2023/03/10 11:05:31;;;;;;;0.00;0.00;;;;;;;8.41;61.16;99034.66;6246109;22;20035;-78
2023/03/10 11:08:16;;;;;;;0.00;0.00;;;;;;;8.47;60.26;99044.44;6269582;22;20280;-78
2023/03/10 11:10:45;;;;;;;0.00;0.00;;;;;;;8.37;60.23;99061.63;6270552;22;19999;-78
2023/03/10 11:13:36;;;;;;;0.00;0.00;;;;;;;9.08;59.66;99107.63;6268648;22;20000;-79
2023/03/10 11:16:27;;;;;;;0.00;0.00;;;;;;;9.58;58.95;99110.91;6268642;22;20031;-83
2023/03/10 11:19:11;;;;;;;0.00;0.00;;;;;;;9.54;57.36;99126.22;6267937;22;20435;-81
2023/03/10 11:21:44;;;;;;;0.00;0.00;;;;;;;9.24;56.76;99128.22;6264650;22;20430;-81
2023/03/10 11:24:32;;;;;;;0.00;0.00;;;;;;;9.19;57.20;99127.44;6267991;22;20003;-83
2023/03/10 11:27:09;;;;;;;0.00;0.00;;;;;;;8.72;57.20;99143.41;6267544;22;20491;-80
2023/03/10 11:30:20;;;;;;;0.00;0.00;;;;;;;8.52;58.77;99182.53;6268855;22;20000;-80
2023/03/10 11:32:48;;;;;;;0.00;0.00;;;;;;;8.28;59.33;99193.25;6267289;22;20117;-82
2023/03/10 11:35:31;;;;;;;0.00;0.00;;;;;;;8.12;59.66;99201.50;6266583;22;20069;-81
2023/03/10 11:38:41;;;;;;;0.00;0.00;;;;;;;8.20;59.79;99203.63;6270714;22;20011;-82
2023/03/10 11:41:23;;;;;;;0.00;0.00;;;;;;;7.92;59.37;99207.03;6268035;22;20029;-80
2023/03/10 11:44:00;;;;;;;0.00;0.00;;;;;;;7.57;59.78;99184.31;6264655;22;20004;-80
2023/03/10 11:46:49;;;;;;;0.00;0.00;;;;;;;8.05;59.70;99209.16;6271372;22;20061;-80
2023/03/10 11:49:23;;;;;;;0.00;0.00;;;;;;;9.28;59.01;99236.75;6268554;22;20000;-82
2023/03/10 11:52:06;;;;;;;0.10;0.10;;;;;;;11.23;54.54;99253.44;6270367;22;20026;-83
2023/03/10 11:54:40;;;;;;;0.00;0.00;;;;;;;10.58;52.15;99229.53;6268695;22;20004;-80
2023/03/10 11:57:34;;;;;;;0.00;0.00;;;;;;;9.46;53.28;99230.56;6269964;22;20011;-80
2023/03/10 12:00:08;;;;;;;0.00;0.00;;;;;;;8.11;55.80;99246.16;6268973;22;20014;-77
2023/03/10 12:02:50;;;;;;;;;;;;;;;7.31;57.25;99260.50;6265404;22;20056;-77
2023/03/10 12:05:39;;;;;;;;;;;;;;;;;;;;;
2023/03/10 12:08:05;;;;;;;0.00;0.00;;;;;;;6.68;61.58;99277.84;6266286;22;20098;-77
2023/03/10 12:10:36;;;;;;;0.00;0.00;;;;;;;7.13;61.83;99278.97;6268289;22;20322;-78
2023/03/10 12:13:03;;;;;;;0.00;0.00;;;;;;;7.61;61.07;99283.31;6265255;22;20003;-79
2023/03/10 12:15:38;;;;;;;0.00;0.00;;;;;;;7.43;59.70;99280.09;6295733;22;20449;-79
2023/03/10 12:18:11;;;;;;;0.10;0.10;;;;;;;7.02;59.97;99299.06;6265042;22;20022;-78
2023/03/10 12:20:39;;;;;;;0.10;0.10;;;;;;;6.88;59.87;99317.00;6268097;22;20003;-78
2023/03/10 12:23:10;;;;;;;0.05;0.05;;;;;;;7.31;60.76;99344.78;6287889;22;19999;-78